Time;durP1;ratioP1;P1;durP2;ratioP2;P2;SDS_P1;SDS_P2;PMS_P1;PMS_P2;Temp;Humidity;BMP_temperature;BMP_pressure;BME280_temperature;BME280_humidity;BME280_pressure;Samples;Min_cycle;Max_cycle;Signal;HPM_P1;HPM_P2
2022/04/24 00:01:56;;;;;;;1.10;1.00;;;;;;;11.08;71.68;100154.50;5022326;28;20510;-69
2022/04/24 00:04:24;;;;;;;0.60;0.60;;;;;;;11.33;70.80;100160.91;5030082;28;20493;-68
2022/04/24 00:06:53;;;;;;;0.80;0.68;;;;;;;11.31;71.00;100149.72;5022009;28;20034;-69
2022/04/24 00:09:20;;;;;;;0.60;0.50;;;;;;;11.06;71.82;100151.41;5035046;28;20083;-70
2022/04/24 00:11:46;;;;;;;0.28;0.28;;;;;;;11.01;72.24;100139.06;5025119;28;20052;-69
2022/04/24 00:14:12;;;;;;;0.93;0.60;;;;;;;11.36;70.97;100152.09;5028907;28;20029;-69
2022/04/24 00:16:38;;;;;;;0.47;0.47;;;;;;;11.26;71.52;100153.53;5029738;28;20057;-69
2022/04/24 00:19:05;;;;;;;0.43;0.43;;;;;;;11.17;72.27;100153.06;5033693;28;20029;-69
2022/04/24 00:21:31;;;;;;;0.60;0.50;;;;;;;10.98;73.65;100160.56;5032275;28;20395;-69
2022/04/24 00:23:57;;;;;;;0.88;0.60;;;;;;;11.20;72.38;100159.63;5027141;28;20028;-74
2022/04/24 00:26:22;;;;;;;0.32;0.32;;;;;;;11.19;71.87;100163.50;5040454;28;20485;-68
2022/04/24 00:28:47;;;;;;;1.27;0.70;;;;;;;11.18;72.51;100164.63;5030530;28;20052;-69
2022/04/24 00:31:13;;;;;;;0.50;0.50;;;;;;;11.17;72.63;100165.78;5037349;28;20032;-69
2022/04/24 00:33:39;;;;;;;0.52;0.45;;;;;;;10.92;73.24;100165.50;5048688;28;20035;-69
2022/04/24 00:36:04;;;;;;;1.35;0.98;;;;;;;10.87;73.43;100155.84;5054291;28;20434;-69
2022/04/24 00:38:34;;;;;;;0.52;0.43;;;;;;;11.09;72.22;100159.50;5040951;28;20525;-69
2022/04/24 00:41:00;;;;;;;2.13;0.70;;;;;;;10.89;72.98;100150.88;5043025;28;20025;-69
2022/04/24 00:43:25;;;;;;;0.17;0.17;;;;;;;11.05;71.85;100160.63;5033349;28;20690;-69
2022/04/24 00:46:36;;;;;;;0.20;0.20;;;;;;;10.73;73.22;100155.69;5025034;28;20037;-69
2022/04/24 00:49:01;;;;;;;0.65;0.60;;;;;;;10.52;74.63;100150.06;5025846;28;20045;-69
2022/04/24 00:51:28;;;;;;;2.47;0.90;;;;;;;10.67;73.76;100157.16;5033056;28;20464;-68
2022/04/24 00:53:55;;;;;;;0.20;0.20;;;;;;;10.76;72.73;100164.94;5029073;28;20087;-69
2022/04/24 00:56:22;;;;;;;0.45;0.45;;;;;;;10.71;73.04;100159.88;5033346;28;20026;-69
2022/04/24 00:58:49;;;;;;;0.43;0.43;;;;;;;10.57;73.80;100149.72;5031556;28;20029;-69
2022/04/24 01:01:15;;;;;;;0.73;0.60;;;;;;;10.59;73.48;100160.13;5022939;28;20056;-69
2022/04/24 01:03:40;;;;;;;1.52;0.60;;;;;;;10.52;74.49;100147.34;5037019;28;20064;-69
2022/04/24 01:06:06;;;;;;;0.73;0.73;;;;;;;10.39;75.44;100158.72;5032865;28;20507;-68
2022/04/24 01:08:34;;;;;;;0.40;0.40;;;;;;;10.66;73.89;100158.31;5032376;28;20116;-69
2022/04/24 01:10:59;;;;;;;0.63;0.50;;;;;;;10.55;74.71;100159.31;5027202;28;20034;-68
2022/04/24 01:13:25;;;;;;;0.60;0.40;;;;;;;10.54;74.50;100155.84;5034390;28;20041;-69
2022/04/24 01:15:50;;;;;;;0.82;0.73;;;;;;;10.48;75.16;100154.63;5032545;28;20087;-69
2022/04/24 01:18:16;;;;;;;2.72;0.73;;;;;;;10.71;74.08;100157.19;5032035;28;20048;-69
2022/04/24 01:20:42;;;;;;;0.52;0.52;;;;;;;10.85;73.17;100155.44;5021814;28;20026;-69
2022/04/24 01:23:07;;;;;;;1.20;0.63;;;;;;;10.73;74.01;100155.69;5043510;28;20036;-69
2022/04/24 01:25:33;;;;;;;0.52;0.52;;;;;;;10.48;74.96;100148.44;5036749;28;20117;-69
2022/04/24 01:27:58;;;;;;;0.50;0.50;;;;;;;10.40;75.93;100157.56;5029894;28;20049;-69
2022/04/24 01:30:23;;;;;;;0.55;0.47;;;;;;;10.49;75.04;100153.47;5017662;28;20021;-69
2022/04/24 01:32:49;;;;;;;0.80;0.70;;;;;;;10.72;73.59;100148.72;5033736;28;20041;-69
2022/04/24 01:35:15;;;;;;;1.95;0.47;;;;;;;10.70;74.20;100158.34;5032854;28;20037;-69
2022/04/24 01:37:44;;;;;;;0.20;0.20;;;;;;;10.55;74.04;100154.69;5032006;28;20025;-69
2022/04/24 01:40:10;;;;;;;0.45;0.20;;;;;;;10.53;75.20;100156.97;5017141;28;20423;-69
2022/04/24 01:42:35;;;;;;;0.38;0.38;;;;;;;10.71;73.48;100147.19;5035085;28;20041;-69
2022/04/24 01:45:01;;;;;;;0.32;0.32;;;;;;;10.55;74.20;100141.22;5035412;28;20045;-69
2022/04/24 01:47:26;;;;;;;0.47;0.47;;;;;;;10.58;74.02;100145.91;5032007;28;20021;-68
2022/04/24 01:49:51;;;;;;;0.22;0.22;;;;;;;10.42;74.97;100136.44;5031894;28;20041;-68
2022/04/24 01:52:17;;;;;;;0.82;0.70;;;;;;;10.27;76.38;100146.28;5016925;28;20056;-69
2022/04/24 01:54:42;;;;;;;0.32;0.32;;;;;;;10.22;75.43;100138.50;5034697;28;20486;-68
2022/04/24 01:57:08;;;;;;;0.85;0.73;;;;;;;10.20;75.60;100143.47;5045637;28;20059;-69
2022/04/24 01:59:33;;;;;;;0.30;0.30;;;;;;;10.24;75.67;100140.84;5031803;28;20041;-69
2022/04/24 02:01:59;;;;;;;0.55;0.55;;;;;;;10.34;75.51;100140.97;5031237;28;20025;-69
2022/04/24 02:04:24;;;;;;;1.35;0.40;;;;;;;10.26;75.53;100133.94;5043582;28;20110;-68
2022/04/24 02:06:50;;;;;;;0.75;0.55;;;;;;;10.28;75.97;100130.91;5049123;28;20036;-69
2022/04/24 02:09:15;;;;;;;0.68;0.60;;;;;;;10.28;75.27;100138.97;5031328;28;21013;-69
2022/04/24 02:11:41;;;;;;;0.80;0.40;;;;;;;10.04;77.29;100140.91;5022758;28;20640;-69
2022/04/24 02:14:06;;;;;;;0.30;0.30;;;;;;;10.10;76.90;100127.97;5011395;28;20037;-69
2022/04/24 02:16:32;;;;;;;0.30;0.30;;;;;;;10.04;77.43;100129.41;5029258;28;20386;-69
2022/04/24 02:18:57;;;;;;;0.70;0.57;;;;;;;10.13;77.43;100127.25;5034068;28;20531;-69
2022/04/24 02:21:23;;;;;;;0.80;0.50;;;;;;;10.11;77.61;100126.03;5037446;28;20094;-69
2022/04/24 02:23:49;;;;;;;0.20;0.20;;;;;;;10.07;77.82;100120.59;5030522;28;20029;-69
2022/04/24 02:26:15;;;;;;;1.00;0.73;;;;;;;10.21;76.67;100120.81;5024627;28;20033;-69
2022/04/24 02:28:40;;;;;;;0.75;0.47;;;;;;;9.99;77.43;100129.69;5023531;28;20390;-69
2022/04/24 02:31:06;;;;;;;0.30;0.30;;;;;;;10.17;76.80;100130.75;5020495;28;20395;-69
2022/04/24 02:33:31;;;;;;;0.70;0.70;;;;;;;10.08;77.19;100118.69;5031252;28;20033;-69
2022/04/24 02:35:57;;;;;;;1.10;0.93;;;;;;;10.12;77.14;100117.63;5031064;28;20127;-69
2022/04/24 02:38:22;;;;;;;2.72;0.80;;;;;;;9.88;78.67;100120.72;5030554;28;20107;-69
2022/04/24 02:40:48;;;;;;;0.57;0.38;;;;;;;9.90;78.29;100115.75;5034912;28;20037;-68
2022/04/24 02:43:13;;;;;;;0.75;0.68;;;;;;;10.00;78.79;100120.50;5043282;28;20509;-69
2022/04/24 02:45:40;;;;;;;0.88;0.47;;;;;;;9.93;78.83;100125.78;5037093;28;20190;-69
2022/04/24 02:48:06;;;;;;;0.52;0.45;;;;;;;9.81;79.04;100123.31;5025506;28;20549;-69
2022/04/24 02:50:31;;;;;;;0.40;0.40;;;;;;;9.66;80.22;100106.19;5036071;28;20045;-68
2022/04/24 02:52:57;;;;;;;1.38;0.52;;;;;;;9.96;78.76;100112.41;5033230;28;20045;-68
2022/04/24 02:55:24;;;;;;;0.75;0.63;;;;;;;9.87;79.60;100116.50;5030777;28;20045;-69
2022/04/24 02:57:50;;;;;;;1.02;0.63;;;;;;;10.02;78.97;100112.84;5030220;28;20091;-68
2022/04/24 03:00:19;;;;;;;0.95;0.45;;;;;;;9.80;79.73;100111.00;5025165;28;20040;-69
2022/04/24 03:02:46;;;;;;;1.88;0.65;;;;;;;9.78;80.25;100114.03;5037962;28;20446;-68
2022/04/24 03:05:14;;;;;;;0.82;0.82;;;;;;;10.01;79.41;100109.38;5029579;28;20037;-69
2022/04/24 03:07:40;;;;;;;0.20;0.20;;;;;;;10.01;79.64;100113.97;5034254;28;20554;-69
2022/04/24 03:10:08;;;;;;;0.80;0.70;;;;;;;10.11;78.54;100104.53;5030922;28;20049;-69
2022/04/24 03:12:34;;;;;;;1.13;0.60;;;;;;;9.83;79.65;100113.72;5030665;28;20065;-69
2022/04/24 03:15:00;;;;;;;0.47;0.47;;;;;;;9.81;80.18;100099.88;5028225;28;20136;-69
2022/04/24 03:17:25;;;;;;;0.32;0.32;;;;;;;9.80;79.74;100100.22;5041766;28;20529;-69
2022/04/24 03:19:52;;;;;;;0.30;0.30;;;;;;;9.88;78.76;100099.97;5039266;28;20037;-68
2022/04/24 03:22:17;;;;;;;0.43;0.43;;;;;;;9.56;80.33;100087.22;5025210;28;20568;-69
2022/04/24 03:24:42;;;;;;;1.17;0.50;;;;;;;9.48;81.19;100089.03;5039047;28;20112;-69
2022/04/24 03:27:08;;;;;;;0.47;0.47;;;;;;;9.57;80.45;100086.06;5029386;28;20127;-68
2022/04/24 03:29:33;;;;;;;1.45;0.80;;;;;;;9.49;80.50;100090.56;5030294;28;20450;-69
2022/04/24 03:31:59;;;;;;;0.82;0.70;;;;;;;9.50;80.74;100085.97;5026715;28;20529;-69
2022/04/24 03:34:24;;;;;;;0.45;0.45;;;;;;;9.41;81.32;100083.53;5039346;28;20044;-68
2022/04/24 03:36:49;;;;;;;0.40;0.40;;;;;;;9.31;81.68;100086.06;5049745;28;20040;-69
2022/04/24 03:39:15;;;;;;;0.40;0.40;;;;;;;9.47;80.78;100086.69;5025144;28;20037;-70
2022/04/24 03:41:41;;;;;;;1.00;0.95;;;;;;;9.53;80.62;100091.41;5019809;28;20037;-69
2022/04/24 03:44:06;;;;;;;0.95;0.82;;;;;;;9.45;80.85;100078.97;5027162;28;20052;-69
2022/04/24 03:46:32;;;;;;;0.38;0.30;;;;;;;9.25;81.75;100090.19;5033237;28;20034;-69
2022/04/24 03:48:57;;;;;;;8.30;1.00;;;;;;;9.27;82.03;100087.91;5031126;28;20405;-69
2022/04/24 03:51:23;;;;;;;1.08;0.50;;;;;;;9.24;81.75;100081.34;5033254;28;20033;-69
2022/04/24 03:53:48;;;;;;;0.60;0.60;;;;;;;9.08;82.69;100089.53;5031812;28;20116;-69
2022/04/24 03:56:13;;;;;;;0.88;0.50;;;;;;;9.11;82.64;100079.97;5026766;28;20029;-70
2022/04/24 03:58:39;;;;;;;0.47;0.40;;;;;;;9.15;82.46;100088.88;5049516;28;20386;-69
2022/04/24 04:01:04;;;;;;;2.05;1.23;;;;;;;9.03;83.01;100072.94;5040933;28;20042;-69
2022/04/24 04:03:30;;;;;;;0.47;0.47;;;;;;;8.95;83.41;100082.78;5032655;28;20124;-69
2022/04/24 04:05:55;;;;;;;0.70;0.70;;;;;;;9.05;82.98;100082.19;5015233;28;20036;-70
2022/04/24 04:08:21;;;;;;;0.30;0.30;;;;;;;9.06;83.01;100089.09;5042012;28;20117;-69
2022/04/24 04:10:46;;;;;;;0.30;0.30;;;;;;;9.21;82.17;100089.34;5025415;28;20085;-71
2022/04/24 04:13:13;;;;;;;1.17;0.82;;;;;;;9.22;81.75;100085.50;5039050;28;20082;-70
2022/04/24 04:15:38;;;;;;;0.65;0.63;;;;;;;9.13;82.15;100083.09;5054213;28;20458;-70
2022/04/24 04:18:04;;;;;;;0.50;0.50;;;;;;;9.01;82.75;100078.66;5035360;28;20053;-70
2022/04/24 04:20:29;;;;;;;0.82;0.52;;;;;;;9.06;83.17;100073.00;5022184;28;20061;-69
2022/04/24 04:22:55;;;;;;;0.93;0.60;;;;;;;9.00;83.29;100082.47;5031660;28;20037;-69
2022/04/24 04:25:23;;;;;;;0.28;0.28;;;;;;;9.09;82.54;100082.25;5033785;28;20083;-69
2022/04/24 04:27:49;;;;;;;1.45;0.40;;;;;;;9.09;82.73;100082.25;5026009;28;20032;-69
2022/04/24 04:30:15;;;;;;;0.22;0.22;;;;;;;8.93;83.90;100078.91;5016263;28;20042;-69
2022/04/24 04:32:40;;;;;;;0.85;0.60;;;;;;;9.00;82.84;100079.03;5028229;28;20520;-69
2022/04/24 04:35:09;;;;;;;0.95;0.40;;;;;;;8.85;84.24;100088.75;5033827;28;20072;-69
2022/04/24 04:37:35;;;;;;;0.50;0.50;;;;;;;8.91;84.18;100089.22;5037350;28;20078;-70
2022/04/24 04:40:02;;;;;;;2.65;0.75;;;;;;;8.94;83.60;100077.78;5034325;28;20449;-71
2022/04/24 04:42:28;;;;;;;1.17;0.80;;;;;;;8.69;85.18;100079.25;5029450;28;20389;-70
2022/04/24 04:44:53;;;;;;;0.73;0.70;;;;;;;8.70;85.55;100089.63;5043551;28;20033;-69
2022/04/24 04:47:18;;;;;;;0.20;0.20;;;;;;;8.93;84.60;100087.72;5052655;28;20033;-69
2022/04/24 04:49:44;;;;;;;0.70;0.65;;;;;;;9.02;83.38;100090.94;5038426;28;20025;-69
2022/04/24 04:52:09;;;;;;;0.70;0.52;;;;;;;9.02;84.29;100082.91;5034200;28;20478;-70
2022/04/24 04:54:34;;;;;;;0.75;0.70;;;;;;;9.03;84.18;100086.38;5045602;28;20036;-69
2022/04/24 04:57:00;;;;;;;1.20;0.40;;;;;;;8.86;85.25;100082.25;5032736;28;20116;-69
2022/04/24 04:59:25;;;;;;;2.75;0.57;;;;;;;8.93;84.87;100085.06;5028948;28;20473;-70
2022/04/24 05:01:51;;;;;;;0.10;0.10;;;;;;;8.93;85.63;100093.09;5012876;28;20044;-69
2022/04/24 05:04:16;;;;;;;0.57;0.43;;;;;;;8.89;85.76;100092.25;5028296;28;20047;-70
2022/04/24 05:06:41;;;;;;;0.25;0.25;;;;;;;8.96;86.29;100084.31;5041527;28;20031;-69
2022/04/24 05:09:07;;;;;;;0.15;0.15;;;;;;;9.17;84.69;100088.50;5029377;28;20489;-70
2022/04/24 05:11:33;;;;;;;0.68;0.60;;;;;;;8.93;86.47;100090.41;5047130;28;20047;-69
2022/04/24 05:13:58;;;;;;;0.55;0.55;;;;;;;9.16;85.07;100086.94;5032905;28;20122;-70
2022/04/24 05:16:23;;;;;;;0.60;0.60;;;;;;;9.15;85.82;100090.78;5020442;28;20517;-70
2022/04/24 05:18:49;;;;;;;1.15;0.40;;;;;;;9.17;85.78;100093.88;5034817;28;20029;-70
2022/04/24 05:21:17;;;;;;;0.82;0.60;;;;;;;9.16;86.09;100095.00;5032696;28;20034;-69
2022/04/24 05:23:45;;;;;;;0.95;0.80;;;;;;;9.31;85.67;100094.88;5024565;28;20040;-68
2022/04/24 05:26:12;;;;;;;1.50;0.95;;;;;;;9.65;83.92;100103.84;5040909;28;20049;-68
2022/04/24 05:28:37;;;;;;;0.47;0.38;;;;;;;9.67;83.65;100102.38;5032007;28;20116;-68
2022/04/24 05:31:03;;;;;;;1.75;0.75;;;;;;;9.65;84.44;100103.84;5021018;28;20126;-68
2022/04/24 05:33:28;;;;;;;0.70;0.70;;;;;;;9.80;83.66;100101.03;5033102;28;20108;-68
2022/04/24 05:35:54;;;;;;;0.40;0.40;;;;;;;9.99;83.10;100097.41;5034143;28;20383;-68
2022/04/24 05:38:19;;;;;;;0.82;0.80;;;;;;;10.32;81.70;100094.81;5026282;28;20037;-69
2022/04/24 05:40:44;;;;;;;2.10;0.50;;;;;;;10.46;80.99;100105.75;5035296;28;20049;-69
2022/04/24 05:43:10;;;;;;;0.95;0.47;;;;;;;10.83;80.14;100100.38;5045523;28;20087;-68
2022/04/24 05:45:36;;;;;;;0.47;0.43;;;;;;;11.50;76.45;100106.34;5031697;28;20120;-68
2022/04/24 05:48:01;;;;;;;1.67;0.70;;;;;;;12.04;73.06;100100.19;5027846;28;20040;-68
2022/04/24 05:50:26;;;;;;;0.30;0.30;;;;;;;12.50;71.02;100101.91;5027558;28;20450;-68
2022/04/24 05:52:56;;;;;;;1.13;0.70;;;;;;;12.91;68.58;100107.81;5025396;28;20041;-68
2022/04/24 05:55:22;;;;;;;0.70;0.68;;;;;;;13.22;66.52;100100.97;5031311;28;20052;-69
2022/04/24 05:57:50;;;;;;;0.50;0.50;;;;;;;13.34;64.74;100101.34;5035299;28;20060;-68
2022/04/24 06:00:16;;;;;;;0.30;0.30;;;;;;;13.68;62.69;100095.50;5042016;28;20037;-68
2022/04/24 06:02:42;;;;;;;0.63;0.63;;;;;;;13.65;63.26;100112.50;5029402;28;20076;-69
2022/04/24 06:05:10;;;;;;;1.17;0.50;;;;;;;13.77;61.76;100112.91;5014041;28;20151;-68
2022/04/24 06:07:36;;;;;;;0.82;0.70;;;;;;;13.86;62.26;100105.13;5022280;28;20112;-69
2022/04/24 06:10:02;;;;;;;0.30;0.30;;;;;;;13.98;61.93;100103.94;5019445;28;20145;-68
2022/04/24 06:12:27;;;;;;;1.55;0.80;;;;;;;13.97;62.16;100111.31;5008093;28;20063;-69
2022/04/24 06:14:52;;;;;;;1.33;0.80;;;;;;;14.06;61.16;100110.91;5011573;28;20021;-68
2022/04/24 06:17:18;;;;;;;2.75;1.05;;;;;;;14.03;61.30;100111.69;5011528;28;20083;-70
2022/04/24 06:19:43;;;;;;;1.55;0.93;;;;;;;13.92;62.13;100108.22;5010672;28;20502;-69
2022/04/24 06:22:09;;;;;;;1.83;0.70;;;;;;;13.87;61.83;100111.34;5033577;28;20030;-69
2022/04/24 06:24:34;;;;;;;0.73;0.40;;;;;;;14.01;61.79;100112.09;5012186;28;20030;-69
2022/04/24 06:26:59;;;;;;;0.40;0.40;;;;;;;14.05;62.26;100102.00;5021157;28;20041;-69
2022/04/24 06:29:25;;;;;;;0.95;0.57;;;;;;;14.06;62.98;100098.13;5025036;28;20042;-69
2022/04/24 06:31:51;;;;;;;0.20;0.20;;;;;;;13.93;63.00;100110.56;5046740;28;20029;-69
2022/04/24 06:34:16;;;;;;;0.45;0.45;;;;;;;13.72;63.74;100097.06;5030379;28;20486;-69
2022/04/24 06:36:42;;;;;;;1.52;0.75;;;;;;;13.71;65.22;100097.44;5030349;28;20145;-69
2022/04/24 06:39:07;;;;;;;0.40;0.40;;;;;;;13.68;65.58;100093.59;5026640;28;20034;-68
2022/04/24 06:41:33;;;;;;;0.43;0.30;;;;;;;13.76;65.75;100095.13;5033775;28;20497;-69
2022/04/24 06:43:58;;;;;;;0.50;0.50;;;;;;;13.91;66.25;100091.22;5031292;28;20037;-69
2022/04/24 06:46:23;;;;;;;0.20;0.20;;;;;;;14.00;65.96;100088.88;5030144;28;20037;-69
2022/04/24 06:48:49;;;;;;;0.30;0.30;;;;;;;14.13;65.79;100087.28;5015648;28;20384;-69
2022/04/24 06:51:15;;;;;;;0.88;0.47;;;;;;;14.07;65.59;100096.22;5031692;28;20033;-69
2022/04/24 06:53:40;;;;;;;1.95;0.63;;;;;;;14.10;66.78;100090.00;5030470;28;20546;-68
2022/04/24 06:56:05;;;;;;;0.50;0.50;;;;;;;14.16;66.73;100094.63;5034930;28;20037;-69
2022/04/24 06:58:31;;;;;;;0.80;0.52;;;;;;;14.26;66.06;100083.00;5033749;28;20060;-69
2022/04/24 07:00:56;;;;;;;1.23;0.70;;;;;;;14.52;64.67;100092.56;5029932;28;20044;-69
2022/04/24 07:03:24;;;;;;;1.23;0.80;;;;;;;14.53;64.30;100086.00;5016854;28;20077;-69
2022/04/24 07:06:00;;;;;;;1.52;0.60;;;;;;;14.59;63.73;100089.84;5027583;28;20072;-69
2022/04/24 07:08:26;;;;;;;0.28;0.28;;;;;;;14.53;64.98;100085.22;5018213;28;20104;-69
2022/04/24 07:10:53;;;;;;;1.35;0.90;;;;;;;14.63;65.10;100087.09;5029702;28;20033;-68
2022/04/24 07:13:19;;;;;;;0.77;0.70;;;;;;;14.57;65.32;100089.47;5015339;28;20036;-69
2022/04/24 07:15:45;;;;;;;1.85;0.93;;;;;;;14.82;64.65;100089.31;5020029;28;20458;-69
2022/04/24 07:18:11;;;;;;;0.70;0.70;;;;;;;14.94;63.97;100086.13;5031843;28;20052;-68
2022/04/24 07:20:36;;;;;;;0.55;0.50;;;;;;;14.98;62.24;100086.88;5029896;28;20120;-68
2022/04/24 07:23:05;;;;;;;2.65;0.75;;;;;;;14.99;62.55;100077.56;5018380;28;20037;-69
2022/04/24 07:25:37;;;;;;;0.40;0.40;;;;;;;14.93;62.19;100079.16;5014055;28;20068;-68
2022/04/24 07:28:03;;;;;;;0.60;0.55;;;;;;;14.93;62.67;100079.94;5010972;28;20534;-68
2022/04/24 07:30:29;;;;;;;0.52;0.52;;;;;;;14.84;62.87;100068.78;5039635;28;20095;-69
2022/04/24 07:32:56;;;;;;;0.57;0.43;;;;;;;14.93;62.83;100074.50;5030608;28;20021;-69
2022/04/24 07:35:26;;;;;;;1.02;0.70;;;;;;;15.02;61.64;100077.53;5027310;28;20116;-68
2022/04/24 07:37:52;;;;;;;0.47;0.40;;;;;;;15.13;62.06;100072.81;5024378;28;20645;-69
2022/04/24 07:40:20;;;;;;;1.98;0.50;;;;;;;15.25;61.95;100071.56;5040717;28;20032;-68
2022/04/24 07:42:47;;;;;;;0.68;0.45;;;;;;;15.28;61.84;100073.47;5030728;28;20101;-69
2022/04/24 07:45:29;;;;;;;1.17;0.75;;;;;;;15.53;60.67;100076.78;5025511;28;20166;-69
2022/04/24 07:47:55;;;;;;;1.58;0.55;;;;;;;15.55;59.67;100065.50;5038391;28;20040;-68
2022/04/24 07:50:24;;;;;;;0.98;0.57;;;;;;;15.51;58.52;100073.69;5031529;28;20159;-68
2022/04/24 07:52:50;;;;;;;2.33;0.50;;;;;;;15.71;58.29;100076.59;5016384;28;20051;-68
2022/04/24 07:55:18;;;;;;;3.80;0.70;;;;;;;15.65;58.82;100075.50;5012255;28;20165;-68
2022/04/24 07:57:44;;;;;;;0.93;0.60;;;;;;;15.85;59.29;100076.47;5018872;28;20470;-68
2022/04/24 08:00:11;;;;;;;0.75;0.47;;;;;;;15.86;58.44;100072.56;5021898;28;20021;-68
2022/04/24 08:03:00;;;;;;;3.92;0.40;;;;;;;16.01;57.09;100082.09;5019090;28;20390;-69
2022/04/24 08:05:28;;;;;;;0.25;0.22;;;;;;;16.12;58.08;100069.16;5014185;28;20048;-68
2022/04/24 08:07:55;;;;;;;0.40;0.40;;;;;;;16.16;58.11;100073.38;5028557;28;20026;-69
2022/04/24 08:10:22;;;;;;;0.30;0.30;;;;;;;16.28;56.58;100074.78;5023718;28;20037;-69
2022/04/24 08:12:48;;;;;;;0.40;0.40;;;;;;;16.43;56.16;100069.94;5037566;28;20037;-68
2022/04/24 08:15:14;;;;;;;1.17;0.75;;;;;;;16.48;55.29;100067.56;5016726;28;20590;-69
2022/04/24 08:17:39;;;;;;;0.57;0.57;;;;;;;16.48;54.45;100064.84;5010231;28;20112;-68
2022/04/24 08:20:08;;;;;;;1.85;0.63;;;;;;;16.55;54.95;100061.28;5024074;28;20120;-68
2022/04/24 08:22:47;;;;;;;2.17;0.47;;;;;;;16.53;55.24;100058.94;5012917;28;20062;-68
2022/04/24 08:25:15;;;;;;;0.88;0.40;;;;;;;16.74;54.63;100064.09;5022949;28;20080;-68
2022/04/24 08:27:41;;;;;;;2.53;0.80;;;;;;;16.77;53.97;100054.34;5011316;28;20022;-68
2022/04/24 08:30:09;;;;;;;0.63;0.60;;;;;;;16.79;53.30;100054.72;5042471;28;20539;-68
2022/04/24 08:32:35;;;;;;;1.95;0.40;;;;;;;16.93;53.74;100054.50;5012955;28;20096;-68
2022/04/24 08:35:01;;;;;;;0.95;0.70;;;;;;;16.87;53.67;100048.75;5040992;28;20489;-68
2022/04/24 08:37:26;;;;;;;0.68;0.50;;;;;;;16.81;53.11;100055.84;5038165;28;20038;-69
2022/04/24 08:39:53;;;;;;;0.82;0.60;;;;;;;16.75;53.11;100056.72;5017907;28;20033;-68
2022/04/24 08:42:21;;;;;;;0.70;0.52;;;;;;;16.79;52.91;100047.31;5023693;28;20035;-68
2022/04/24 08:44:48;;;;;;;3.05;1.00;;;;;;;17.03;53.19;100056.28;5043610;28;20040;-69
2022/04/24 08:47:15;;;;;;;1.05;0.68;;;;;;;16.99;52.16;100053.59;5047029;28;20021;-69
2022/04/24 08:49:41;;;;;;;0.65;0.40;;;;;;;17.13;52.69;100049.88;5033502;28;20042;-69
2022/04/24 08:52:08;;;;;;;0.85;0.50;;;;;;;17.19;51.45;100058.38;5035473;28;20064;-69
2022/04/24 08:54:34;;;;;;;0.55;0.40;;;;;;;17.14;51.55;100044.06;5037650;28;20104;-69
2022/04/24 08:57:00;;;;;;;0.98;0.45;;;;;;;17.04;51.70;100049.66;5033098;28;20029;-69
2022/04/24 08:59:26;;;;;;;0.98;0.60;;;;;;;17.25;52.29;100038.41;5039034;28;20542;-69
2022/04/24 09:01:52;;;;;;;1.13;0.60;;;;;;;17.45;51.44;100036.53;5033381;28;20065;-69
2022/04/24 09:04:18;;;;;;;1.05;0.50;;;;;;;17.57;51.73;100049.56;5023858;28;20033;-69
2022/04/24 09:06:57;;;;;;;0.95;0.60;;;;;;;17.53;50.98;100042.63;5034549;28;20057;-68
2022/04/24 09:09:23;;;;;;;0.22;0.20;;;;;;;17.50;50.27;100052.41;5019664;28;20049;-69
2022/04/24 09:11:49;;;;;;;1.52;0.70;;;;;;;17.56;50.98;100048.03;5024976;28;20030;-69
2022/04/24 09:14:15;;;;;;;1.10;0.50;;;;;;;17.67;51.34;100042.38;5022482;28;20041;-68
2022/04/24 09:16:48;;;;;;;0.30;0.30;;;;;;;17.72;50.86;100039.94;5035733;28;20025;-69
2022/04/24 09:19:23;;;;;;;0.95;0.45;;;;;;;17.72;51.45;100039.94;5031255;28;20037;-69
2022/04/24 09:21:50;;;;;;;1.10;0.43;;;;;;;17.80;50.43;100043.31;5025606;28;20501;-70
2022/04/24 09:24:16;;;;;;;0.88;0.43;;;;;;;17.73;50.45;100044.19;5027104;28;20494;-68
2022/04/24 09:26:56;;;;;;;1.13;0.47;;;;;;;18.09;50.82;100051.69;5030140;28;20086;-69
2022/04/24 09:29:25;;;;;;;2.63;0.50;;;;;;;18.32;49.67;100037.97;5019734;28;20073;-70
2022/04/24 09:31:51;;;;;;;1.35;0.50;;;;;;;18.47;49.93;100048.19;5027836;28;20037;-69
2022/04/24 09:34:19;;;;;;;1.40;0.60;;;;;;;18.55;49.83;100046.06;5016996;28;20065;-69
2022/04/24 09:36:46;;;;;;;1.25;0.80;;;;;;;18.51;50.99;100035.22;5013712;28;20438;-68
2022/04/24 09:39:12;;;;;;;0.45;0.43;;;;;;;18.80;50.02;100035.34;5025115;28;20057;-69
2022/04/24 09:41:39;;;;;;;0.30;0.30;;;;;;;18.79;49.79;100040.03;5025739;28;20077;-68
2022/04/24 09:44:14;;;;;;;0.68;0.47;;;;;;;18.82;49.92;100043.88;5019971;28;20042;-69
2022/04/24 09:46:40;;;;;;;1.05;0.50;;;;;;;19.13;49.30;100047.81;5016734;28;20042;-69
2022/04/24 09:49:09;;;;;;;1.42;0.60;;;;;;;19.07;49.50;100046.78;5019405;28;20120;-69
2022/04/24 09:51:43;;;;;;;0.50;0.43;;;;;;;19.15;49.19;100052.84;5016582;28;20037;-70
2022/04/24 09:54:10;;;;;;;2.08;0.70;;;;;;;18.97;48.44;100061.47;5018861;28;20029;-69
2022/04/24 09:56:36;;;;;;;0.75;0.70;;;;;;;18.54;48.46;100060.91;5020356;28;20069;-69
2022/04/24 09:59:03;;;;;;;5.07;0.98;;;;;;;18.53;49.59;100057.41;5028645;28;20033;-69
2022/04/24 10:01:29;;;;;;;1.17;0.60;;;;;;;18.62;49.63;100056.84;5012377;28;20042;-68
2022/04/24 10:03:56;;;;;;;1.50;1.00;;;;;;;18.54;49.80;100061.66;5012938;28;20123;-69
2022/04/24 10:06:23;;;;;;;0.40;0.40;;;;;;;18.48;49.99;100057.91;5013445;28;20025;-69
2022/04/24 10:08:51;;;;;;;1.00;0.70;;;;;;;18.57;49.95;100054.59;5014313;28;20065;-68
2022/04/24 10:11:18;;;;;;;2.10;0.55;;;;;;;18.68;49.86;100055.13;5016389;28;20049;-69
2022/04/24 10:13:50;;;;;;;0.77;0.52;;;;;;;18.84;50.39;100052.41;5013804;28;20036;-69
2022/04/24 10:16:21;;;;;;;1.00;0.65;;;;;;;18.95;49.38;100060.38;5031784;28;20048;-69
2022/04/24 10:19:11;;;;;;;1.15;0.70;;;;;;;19.29;49.21;100066.94;5013887;28;20052;-69
2022/04/24 10:21:40;;;;;;;0.68;0.60;;;;;;;19.45;48.89;100075.13;5016609;28;20044;-69
2022/04/24 10:24:12;;;;;;;1.27;0.57;;;;;;;19.19;48.05;100072.66;5033031;28;20106;-69
2022/04/24 10:26:38;;;;;;;1.08;0.60;;;;;;;19.07;49.48;100067.84;5024071;28;20033;-69
2022/04/24 10:29:09;;;;;;;1.05;0.57;;;;;;;19.37;48.84;100073.78;5010757;28;20041;-68
2022/04/24 10:31:45;;;;;;;0.35;0.25;;;;;;;19.39;49.11;100065.94;5017918;28;21439;-69
2022/04/24 10:34:13;;;;;;;2.55;0.50;;;;;;;19.32;48.90;100066.09;5023986;28;20127;-68
2022/04/24 10:37:02;;;;;;;1.17;0.70;;;;;;;19.03;48.71;100061.75;5015505;28;20048;-68
2022/04/24 10:39:37;;;;;;;0.55;0.43;;;;;;;18.75;49.51;100049.50;5041431;28;20039;-69
2022/04/24 10:42:14;;;;;;;0.55;0.30;;;;;;;18.60;50.06;100057.22;5036839;28;20061;-68
2022/04/24 10:44:51;;;;;;;1.83;0.82;;;;;;;18.53;50.43;100049.22;5015310;28;20036;-69
2022/04/24 10:47:16;;;;;;;1.60;0.65;;;;;;;18.60;49.82;100054.50;5023102;28;20598;-69
2022/04/24 10:49:41;;;;;;;1.25;0.50;;;;;;;18.62;50.93;100049.41;5017134;28;20044;-69
2022/04/24 10:52:07;;;;;;;3.95;0.77;;;;;;;18.48;50.48;100055.19;5021831;28;20029;-69
2022/04/24 10:54:38;;;;;;;1.02;0.60;;;;;;;18.23;50.41;100051.41;5012511;28;20030;-69
2022/04/24 10:57:21;;;;;;;0.50;0.28;;;;;;;18.78;51.62;100054.88;5024663;28;20109;-69
2022/04/24 10:59:51;;;;;;;0.40;0.40;;;;;;;19.05;50.06;100057.38;5009584;28;20137;-69
2022/04/24 11:02:21;;;;;;;0.82;0.52;;;;;;;19.25;49.84;100060.78;5013905;28;20064;-69
2022/04/24 11:04:57;;;;;;;0.47;0.32;;;;;;;19.31;50.30;100056.34;5014535;28;20046;-69
2022/04/24 11:07:22;;;;;;;1.00;0.43;;;;;;;19.09;50.34;100052.59;5013495;28;20113;-68
2022/04/24 11:09:48;;;;;;;0.30;0.22;;;;;;;19.26;50.71;100059.59;5008898;28;20116;-69
2022/04/24 11:12:13;;;;;;;0.88;0.45;;;;;;;19.55;49.33;100052.22;5021839;28;20538;-69
2022/04/24 11:14:39;;;;;;;1.50;1.08;;;;;;;19.69;49.77;100051.88;5006580;28;20030;-69
2022/04/24 11:17:06;;;;;;;1.75;0.70;;;;;;;19.70;49.20;100045.19;5009157;28;20402;-68
2022/04/24 11:19:34;;;;;;;0.50;0.40;;;;;;;19.53;49.91;100043.69;5008836;28;21305;-69
2022/04/24 11:22:26;;;;;;;1.48;0.68;;;;;;;19.70;48.75;100038.97;5009624;28;20022;-69
2022/04/24 11:24:55;;;;;;;2.65;0.50;;;;;;;19.51;49.19;100046.09;5012287;28;20081;-68
2022/04/24 11:27:25;;;;;;;0.80;0.60;;;;;;;19.70;50.22;100047.19;5013479;28;20116;-69